Terminal Aerodrome Forecast
Issued by NWS

Home | Current Version | Previous Version | Text Only | Print | Product List | Glossary On
Versions: 1 2 3 4 5 6 7 8 9 10 11 12 13 14
000
FTUS42 KGSP 182342 CCA
TAFAND
TAF COR
KAND 182342Z 1900/1924 20009KT P6SM BKN035 WS020/21030KT
     FM190300 22014G25KT P6SM VCSH BKN025 WS020/22040KT
      TEMPO 1904/1907 4SM -SHRA OVC007
     FM190700 26017G28KT P6SM OVC025
     FM190900 27014G24KT P6SM BKN060
     FM191100 30008KT P6SM SCT120
     FM191400 32012G22KT P6SM FEW250=

USA.gov is the U.S. government's official web portal to all federal, state and local government web resources and services.